Morrison, Minnesota
Current Conditions -  °F | °C
As of 7:14 PM on Saturday 22 Nov 2014 (Local Time) from KAIT Reporting Station
Haze Haze  
Wind Chill: 29°   Ceiling: 600
Heat Index: 36°   Visibility: 2.5mi
Dew Point: 30°   Wind: 9mph
Humidity: 81%   Direction: 130°SE
Pressure: 29.54"   Gusts: NA
Location:  46.7281°N, 93.6101°W
Report Text: KAIT 230114Z AUTO 13008KT 2 1/2SM HZ OVC006 02/M01 A2954 RMK AO2
Loading
Personal Weather Stations






























Interactive Weather Map New forecast layout! Learn more

10-Day Weather Forecast

Advertisements
Track Severe Weather on mobile